createdAt,value
2018-02-07T00:00:50.410Z,76.30
2018-02-07T00:03:19.626Z,77.45
2018-02-07T00:05:48.926Z,77.95
2018-02-07T00:08:18.130Z,78.18
2018-02-07T00:10:47.531Z,77.98
2018-02-07T00:13:16.721Z,78.06
2018-02-07T00:15:46.124Z,78.17
2018-02-07T00:18:15.318Z,78.32
2018-02-07T00:20:44.558Z,77.83
2018-02-07T00:23:14.550Z,77.97
2018-02-07T00:25:44.558Z,78.26
2018-02-07T00:28:13.783Z,78.56
2018-02-07T00:30:43.815Z,78.45
2018-02-07T00:33:13.218Z,78.64
2018-02-07T00:35:42.434Z,78.57
2018-02-07T00:38:11.693Z,78.48
2018-02-07T00:40:41.758Z,78.43
2018-02-07T00:43:10.978Z,78.11
2018-02-07T00:45:40.205Z,78.28
2018-02-07T00:48:09.401Z,77.90
2018-02-07T00:50:39.375Z,78.00
2018-02-07T00:53:08.807Z,77.91
2018-02-07T00:55:37.977Z,77.81
2018-02-07T00:58:07.220Z,78.07
2018-02-07T01:00:37.196Z,78.39
2018-02-07T01:03:06.487Z,78.23
2018-02-07T01:05:35.778Z,78.37
2018-02-07T01:08:05.011Z,78.83
2018-02-07T01:10:34.361Z,78.59
2018-02-07T01:13:03.554Z,78.85
2018-02-07T01:15:32.799Z,79.09
2018-02-07T01:18:02.912Z,79.32
2018-02-07T01:20:32.122Z,79.57
2018-02-07T01:23:01.320Z,79.45
2018-02-07T01:25:30.679Z,79.49
2018-02-07T01:27:59.890Z,79.87
2018-02-07T01:30:29.133Z,79.87
2018-02-07T01:32:59.139Z,80.23
2018-02-07T01:35:29.116Z,80.32
2018-02-07T01:37:58.351Z,80.31
2018-02-07T01:40:28.330Z,80.28
2018-02-07T01:42:57.575Z,80.60
2018-02-07T01:45:27.548Z,80.76
2018-02-07T01:47:56.757Z,80.67
2018-02-07T01:50:25.985Z,80.51
2018-02-07T01:52:55.277Z,80.28
2018-02-07T01:55:24.425Z,80.10
2018-02-07T01:57:53.639Z,79.96
2018-02-07T02:00:22.906Z,79.89
2018-02-07T02:02:52.186Z,79.58
2018-02-07T02:05:21.435Z,79.44
2018-02-07T02:07:50.638Z,79.18
2018-02-07T02:10:19.903Z,79.58
2018-02-07T02:12:49.445Z,79.93
2018-02-07T02:15:18.704Z,79.50
2018-02-07T02:17:47.921Z,79.63
2018-02-07T02:20:17.382Z,79.48
2018-02-07T02:22:47.345Z,79.15
2018-02-07T02:25:16.662Z,79.48
2018-02-07T02:27:45.888Z,79.25
2018-02-07T02:30:15.895Z,79.62
2018-02-07T02:32:45.190Z,79.75
2018-02-07T02:35:14.419Z,79.25
2018-02-07T02:37:43.635Z,79.14
2018-02-07T02:40:12.831Z,78.63
2018-02-07T02:42:42.183Z,78.37
2018-02-07T02:45:11.382Z,78.67
2018-02-07T02:47:40.743Z,79.12
2018-02-07T02:50:09.928Z,79.41
2018-02-07T02:52:39.141Z,79.24
2018-02-07T02:55:08.390Z,79.30
2018-02-07T02:57:38.360Z,79.74
2018-02-07T03:00:07.599Z,79.98
2018-02-07T03:02:37.618Z,80.08
2018-02-07T03:05:07.618Z,79.94
2018-02-07T03:07:36.807Z,79.84
2018-02-07T03:10:06.178Z,79.84
2018-02-07T03:12:35.413Z,79.80
2018-02-07T03:15:06.145Z,79.54
2018-02-07T03:17:35.368Z,79.86
2018-02-07T03:20:05.343Z,80.12
2018-02-07T03:22:34.581Z,80.20
2018-02-07T03:25:04.553Z,79.70
2018-02-07T03:27:33.746Z,79.84
2018-02-07T03:30:02.962Z,79.69
2018-02-07T03:32:32.222Z,79.97
2018-02-07T03:35:01.509Z,80.03
2018-02-07T03:37:31.085Z,80.25
2018-02-07T03:40:00.346Z,80.57
2018-02-07T03:42:29.565Z,80.68
2018-02-07T03:44:59.564Z,80.48
2018-02-07T03:47:28.797Z,80.66
2018-02-07T03:49:58.791Z,80.80
2018-02-07T03:52:28.119Z,81.02
2018-02-07T03:54:58.161Z,80.50
2018-02-07T03:57:27.396Z,80.97
2018-02-07T03:59:56.755Z,81.29
2018-02-07T04:02:25.994Z,81.40
2018-02-07T04:04:55.218Z,81.32
2018-02-07T04:07:25.223Z,81.26
2018-02-07T04:09:54.453Z,81.52
2018-02-07T04:12:23.733Z,81.89
2018-02-07T04:14:52.998Z,81.63
2018-02-07T04:17:22.242Z,81.53
2018-02-07T04:19:51.451Z,81.85
2018-02-07T04:22:20.772Z,81.84
2018-02-07T04:24:50.019Z,81.39
2018-02-07T04:27:20.064Z,81.57
2018-02-07T04:29:49.368Z,81.83
2018-02-07T04:32:18.662Z,81.62
2018-02-07T04:34:47.863Z,81.90
2018-02-07T04:37:17.101Z,81.90
2018-02-07T04:39:46.340Z,81.86
2018-02-07T04:42:16.518Z,81.83
2018-02-07T04:44:45.742Z,81.65
2018-02-07T04:47:14.970Z,81.39
2018-02-07T04:49:44.949Z,81.13
2018-02-07T04:52:14.196Z,81.18
2018-02-07T04:54:43.409Z,81.47
2018-02-07T04:57:12.806Z,81.73
2018-02-07T04:59:42.977Z,81.47
2018-02-07T05:02:12.981Z,81.54
2018-02-07T05:04:42.248Z,81.48
2018-02-07T05:07:11.539Z,81.42
2018-02-07T05:09:40.822Z,81.37
2018-02-07T05:12:10.068Z,80.98
2018-02-07T05:14:39.265Z,81.17
2018-02-07T05:17:08.710Z,81.29
2018-02-07T05:19:37.952Z,80.61
2018-02-07T05:22:07.147Z,81.13
2018-02-07T05:37:47.615Z,80.52
2018-02-07T05:40:17.662Z,80.98
2018-02-07T05:42:47.678Z,80.77
2018-02-07T05:45:17.662Z,80.82
2018-02-07T05:47:46.941Z,80.85
2018-02-07T05:50:16.247Z,80.88
2018-02-07T05:52:45.475Z,80.89
2018-02-07T05:55:15.545Z,80.96
2018-02-07T05:57:44.773Z,80.42
2018-02-07T06:00:14.047Z,80.35
2018-02-07T06:02:43.295Z,80.55
2018-02-07T06:05:12.527Z,80.74
2018-02-07T06:07:41.737Z,80.74
2018-02-07T06:10:11.125Z,80.93
2018-02-07T06:12:40.350Z,80.86
2018-02-07T06:15:09.593Z,81.00
2018-02-07T06:17:39.611Z,81.14
2018-02-07T06:20:08.855Z,80.87
2018-02-07T06:22:38.063Z,80.56
2018-02-07T06:25:07.325Z,80.62
2018-02-07T06:27:36.609Z,80.38
2018-02-07T06:30:05.831Z,80.51
2018-02-07T06:32:35.064Z,80.38
2018-02-07T06:35:04.270Z,80.81
2018-02-07T06:37:33.529Z,81.04
2018-02-07T06:40:02.736Z,81.06
2018-02-07T06:42:32.019Z,81.37
2018-02-07T06:45:01.246Z,81.39
2018-02-07T06:47:30.489Z,81.61
2018-02-07T06:50:00.498Z,82.03
2018-02-07T06:52:31.264Z,81.50
2018-02-07T06:55:00.504Z,81.50
2018-02-07T06:57:29.819Z,81.82
2018-02-07T06:59:59.041Z,81.76
2018-02-07T07:02:28.286Z,82.01
2018-02-07T07:04:57.524Z,82.44
2018-02-07T07:07:27.611Z,82.47
2018-02-07T07:09:57.139Z,82.46
2018-02-07T07:12:27.236Z,82.75
2018-02-07T07:14:56.497Z,82.97
2018-02-07T07:17:25.802Z,83.00
2018-02-07T07:19:55.028Z,82.93
2018-02-07T07:22:24.255Z,82.97
2018-02-07T07:24:54.262Z,83.36
2018-02-07T07:27:24.290Z,83.45
2018-02-07T07:29:54.355Z,83.42
2018-02-07T07:32:23.577Z,83.39
2018-02-07T07:34:54.301Z,83.61
2018-02-07T07:37:23.529Z,83.91
2018-02-07T07:39:53.513Z,84.01
2018-02-07T07:42:22.751Z,83.80
2018-02-07T07:44:52.009Z,83.68
2018-02-07T07:47:21.214Z,83.96
2018-02-07T07:49:50.474Z,84.04
2018-02-07T07:52:19.717Z,84.03
2018-02-07T07:54:48.951Z,84.22
2018-02-07T07:57:19.244Z,84.06
2018-02-07T07:59:48.491Z,84.25
2018-02-07T08:02:17.762Z,84.21
2018-02-07T08:04:47.780Z,84.23
2018-02-07T08:07:17.774Z,83.94
2018-02-07T08:09:47.766Z,83.63
2018-02-07T08:12:17.110Z,83.56
2018-02-07T08:14:47.106Z,83.40
2018-02-07T08:17:16.349Z,83.23
2018-02-07T08:19:45.603Z,83.38
2018-02-07T08:22:15.114Z,83.37
2018-02-07T08:24:44.313Z,83.22
2018-02-07T08:27:14.305Z,83.01
2018-02-07T08:29:43.538Z,83.18
2018-02-07T08:32:13.530Z,82.90
2018-02-07T08:34:42.879Z,83.00
2018-02-07T08:37:12.134Z,83.09
2018-02-07T08:39:41.362Z,83.08
2018-02-07T08:42:10.626Z,82.95
2018-02-07T08:44:39.898Z,82.90
2018-02-07T08:47:09.291Z,82.38
2018-02-07T08:49:38.754Z,81.89
2018-02-07T08:52:08.753Z,81.91
2018-02-07T08:54:38.028Z,81.96
2018-02-07T08:57:07.261Z,81.33
2018-02-07T08:59:37.314Z,81.49
2018-02-07T09:02:06.556Z,81.49
2018-02-07T09:04:37.306Z,81.20
2018-02-07T09:07:07.290Z,80.83
2018-02-07T09:09:36.536Z,81.18
2018-02-07T09:12:06.633Z,81.06
2018-02-07T09:14:36.642Z,80.97
2018-02-07T09:17:05.903Z,80.56
2018-02-07T09:19:35.140Z,80.12
2018-02-07T09:22:04.348Z,80.41
2018-02-07T09:24:33.561Z,80.23
2018-02-07T09:27:02.819Z,80.36
2018-02-07T09:29:32.034Z,80.09
2018-02-07T09:32:01.310Z,79.80
2018-02-07T09:34:30.538Z,79.89
2018-02-07T09:37:00.648Z,79.57
2018-02-07T09:39:29.846Z,79.82
2018-02-07T09:41:59.062Z,79.65
2018-02-07T09:44:28.297Z,79.43
2018-02-07T09:46:57.536Z,78.84
2018-02-07T09:49:26.760Z,78.66
2018-02-07T09:51:56.012Z,78.16
2018-02-07T09:54:25.251Z,77.94
2018-02-07T09:56:54.466Z,77.73
2018-02-07T09:59:23.679Z,76.86
2018-02-07T10:01:52.903Z,76.99
2018-02-07T10:04:22.126Z,77.07
2018-02-07T10:06:51.372Z,76.32
2018-02-07T10:09:20.570Z,77.08
2018-02-07T10:11:49.845Z,76.32
2018-02-07T10:14:19.823Z,76.14
2018-02-07T10:16:49.084Z,76.38
2018-02-07T10:19:18.368Z,75.74
2018-02-07T10:21:47.595Z,75.73
2018-02-07T10:24:16.798Z,75.74
2018-02-07T10:26:46.034Z,75.11
2018-02-07T10:29:15.296Z,75.30
2018-02-07T10:31:44.528Z,75.01
2018-02-07T10:34:13.768Z,74.98
2018-02-07T10:36:43.028Z,75.12
2018-02-07T10:39:12.312Z,74.49
2018-02-07T10:41:41.555Z,74.06
2018-02-07T10:44:11.067Z,73.64
2018-02-07T10:46:40.306Z,73.73
2018-02-07T10:49:09.627Z,73.16
2018-02-07T10:51:39.675Z,73.47
2018-02-07T10:54:09.010Z,73.31
2018-02-07T10:56:38.342Z,72.86
2018-02-07T10:59:08.338Z,72.51
2018-02-07T11:01:37.722Z,73.17
2018-02-07T11:04:07.025Z,72.19
2018-02-07T11:06:36.257Z,72.32
2018-02-07T11:09:05.500Z,72.07
2018-02-07T11:11:34.852Z,72.28
2018-02-07T11:14:04.071Z,72.25
2018-02-07T11:16:34.071Z,72.24
2018-02-07T11:19:03.270Z,71.47
2018-02-07T11:21:33.269Z,71.17
2018-02-07T11:24:02.503Z,71.44
2018-02-07T11:26:31.776Z,71.05
2018-02-07T11:29:01.003Z,70.94
2018-02-07T11:31:30.276Z,70.78
2018-02-07T11:34:00.269Z,70.52
2018-02-07T11:36:29.552Z,70.71
2018-02-07T11:38:58.791Z,70.83
2018-02-07T11:41:28.825Z,71.24
2018-02-07T11:43:58.801Z,70.58
2018-02-07T11:46:28.039Z,70.57
2018-02-07T11:48:58.029Z,70.87
2018-02-07T11:51:27.246Z,70.67
2018-02-07T11:53:57.279Z,70.39
2018-02-07T11:56:26.514Z,70.52
2018-02-07T11:58:55.780Z,70.76
2018-02-07T12:01:24.988Z,70.85
2018-02-07T12:03:54.231Z,71.17
2018-02-07T12:06:23.488Z,70.07
2018-02-07T12:08:52.876Z,70.40
2018-02-07T12:11:22.115Z,70.06
2018-02-07T12:13:51.347Z,70.67
2018-02-07T12:16:21.403Z,70.09
2018-02-07T12:18:50.871Z,70.44
2018-02-07T12:21:20.894Z,69.90
2018-02-07T12:23:50.974Z,70.41
2018-02-07T12:26:20.216Z,69.88
2018-02-07T12:28:50.184Z,69.43
2018-02-07T12:31:19.454Z,69.55
2018-02-07T12:33:48.665Z,70.00
2018-02-07T12:36:17.906Z,69.50
2018-02-07T12:38:48.090Z,69.51
2018-02-07T12:41:17.352Z,69.26
2018-02-07T12:43:46.574Z,69.26
2018-02-07T12:46:15.838Z,68.60
2018-02-07T12:48:45.266Z,68.42
2018-02-07T12:51:14.524Z,68.75
2018-02-07T12:53:44.543Z,68.77
2018-02-07T12:56:13.740Z,68.97
2018-02-07T12:58:43.796Z,69.24
2018-02-07T13:01:13.071Z,69.31
2018-02-07T13:03:43.163Z,69.53
2018-02-07T13:06:12.368Z,68.11
2018-02-07T13:08:42.377Z,68.38
2018-02-07T13:11:11.697Z,68.94
2018-02-07T13:13:41.014Z,68.17
2018-02-07T13:16:10.210Z,68.10
2018-02-07T13:18:39.489Z,68.05
2018-02-07T13:21:09.815Z,67.99
2018-02-07T13:23:39.825Z,68.08
2018-02-07T13:26:09.085Z,68.39
2018-02-07T13:28:38.267Z,68.36
2018-02-07T13:31:07.518Z,68.58
2018-02-07T13:33:37.536Z,67.68
2018-02-07T13:36:06.780Z,67.77
2018-02-07T13:38:35.992Z,67.82
2018-02-07T13:41:05.423Z,67.71
2018-02-07T13:43:35.587Z,67.56
2018-02-07T13:46:04.827Z,66.80
2018-02-07T13:48:34.029Z,66.41
2018-02-07T13:51:03.249Z,66.53
2018-02-07T13:53:33.255Z,66.57
2018-02-07T13:56:02.540Z,66.73
2018-02-07T13:58:31.842Z,66.91
2018-02-07T14:01:02.571Z,66.70
2018-02-07T14:03:31.822Z,66.31
2018-02-07T14:06:01.014Z,65.40
2018-02-07T14:08:30.246Z,65.59
2018-02-07T14:10:59.457Z,65.71
2018-02-07T14:13:28.757Z,65.33
2018-02-07T14:15:57.969Z,65.09
2018-02-07T14:18:27.233Z,64.95
2018-02-07T14:20:56.434Z,64.91
2018-02-07T14:23:25.644Z,64.60
2018-02-07T14:25:55.032Z,64.28
2018-02-07T14:28:24.270Z,64.49
2018-02-07T14:30:53.583Z,64.35
2018-02-07T14:33:22.803Z,64.51
2018-02-07T14:35:52.040Z,63.49
2018-02-07T14:38:21.341Z,63.63
2018-02-07T14:40:50.603Z,63.82
2018-02-07T14:43:19.900Z,64.32
2018-02-07T14:45:49.134Z,64.61
2018-02-07T14:48:18.329Z,64.86
2018-02-07T14:50:47.574Z,64.57
2018-02-07T14:53:16.834Z,64.43
2018-02-07T14:55:46.053Z,64.42
2018-02-07T14:58:16.044Z,64.54
2018-02-07T15:00:45.357Z,65.00
2018-02-07T15:03:14.616Z,65.11
2018-02-07T15:05:43.911Z,64.98
2018-02-07T15:08:13.122Z,64.75
2018-02-07T15:10:42.388Z,64.64
2018-02-07T15:13:11.719Z,64.54
2018-02-07T15:15:40.949Z,64.60
2018-02-07T15:18:10.207Z,64.78
2018-02-07T15:20:39.485Z,64.89
2018-02-07T15:23:09.470Z,64.63
2018-02-07T15:25:39.448Z,65.03
2018-02-07T15:28:08.746Z,64.68
2018-02-07T15:30:38.136Z,65.00
2018-02-07T15:33:07.381Z,65.16
2018-02-07T15:35:37.406Z,65.25
2018-02-07T15:38:07.468Z,64.96
2018-02-07T15:40:36.679Z,65.17
2018-02-07T15:43:05.963Z,65.27
2018-02-07T15:45:35.197Z,65.80
2018-02-07T15:48:04.434Z,65.40
2018-02-07T15:50:33.663Z,65.50
2018-02-07T15:53:02.936Z,65.93
2018-02-07T15:55:32.161Z,65.37
2018-02-07T15:58:01.387Z,65.58
2018-02-07T16:00:30.628Z,65.79
2018-02-07T16:03:00.603Z,65.99
2018-02-07T16:05:29.841Z,66.15
2018-02-07T16:07:59.042Z,66.73
2018-02-07T16:10:28.287Z,66.45
2018-02-07T16:12:57.519Z,66.33
2018-02-07T16:15:27.721Z,66.64
2018-02-07T16:17:56.931Z,66.67
2018-02-07T16:20:26.980Z,66.51
2018-02-07T16:22:56.234Z,66.80
2018-02-07T16:25:25.732Z,66.67
2018-02-07T16:27:54.941Z,66.74
2018-02-07T16:30:25.028Z,66.95
2018-02-07T16:32:54.285Z,67.19
2018-02-07T16:35:23.586Z,67.51
2018-02-07T16:37:52.885Z,67.46
2018-02-07T16:40:22.131Z,67.54
2018-02-07T16:42:51.360Z,67.61
2018-02-07T16:45:20.597Z,67.59
2018-02-07T16:47:49.844Z,67.53
2018-02-07T16:50:19.105Z,67.43
2018-02-07T16:52:48.348Z,67.64
2018-02-07T16:55:17.535Z,67.59
2018-02-07T16:57:46.781Z,67.71
2018-02-07T17:00:16.048Z,67.81
2018-02-07T17:02:45.285Z,68.10
2018-02-07T17:05:14.520Z,68.47
2018-02-07T17:07:43.740Z,68.72
2018-02-07T17:10:13.140Z,68.64
2018-02-07T17:12:42.410Z,68.68
2018-02-07T17:15:11.948Z,69.17
2018-02-07T17:17:42.015Z,69.17
2018-02-07T17:20:11.281Z,69.17
2018-02-07T17:22:41.242Z,69.27
2018-02-07T17:25:10.516Z,69.35
2018-02-07T17:27:39.802Z,69.25
2018-02-07T17:30:09.061Z,69.36
2018-02-07T17:32:39.105Z,69.89
2018-02-07T17:35:08.392Z,69.85
2018-02-07T17:37:38.383Z,70.49
2018-02-07T17:40:07.613Z,70.82
2018-02-07T17:42:37.649Z,70.88
2018-02-07T17:45:06.902Z,71.38
2018-02-07T17:47:36.218Z,71.57
2018-02-07T17:50:05.583Z,71.95
2018-02-07T17:52:34.835Z,71.84
2018-02-07T17:55:04.254Z,72.00
2018-02-07T17:57:33.562Z,72.16
2018-02-07T18:00:02.796Z,72.18
2018-02-07T18:02:32.031Z,72.33
2018-02-07T18:05:02.088Z,72.09
2018-02-07T18:07:31.343Z,72.54
2018-02-07T18:10:00.621Z,72.69
2018-02-07T18:12:29.895Z,72.69
2018-02-07T18:14:59.173Z,72.66
2018-02-07T18:17:28.383Z,72.95
2018-02-07T18:19:57.644Z,72.76
2018-02-07T18:22:27.764Z,72.98
2018-02-07T18:24:57.055Z,73.05
2018-02-07T18:27:26.353Z,73.01
2018-02-07T18:29:56.380Z,72.72
2018-02-07T18:32:27.302Z,72.68
2018-02-07T18:34:56.588Z,72.92
2018-02-07T18:37:25.844Z,73.18
2018-02-07T18:39:55.138Z,73.17
2018-02-07T18:42:24.340Z,73.13
2018-02-07T18:44:53.558Z,73.28
2018-02-07T18:47:22.792Z,73.49
2018-02-07T18:49:52.783Z,73.77
2018-02-07T18:52:22.245Z,73.94
2018-02-07T18:54:51.458Z,73.97
2018-02-07T18:57:20.727Z,73.93
2018-02-07T18:59:49.969Z,73.93
2018-02-07T19:02:19.204Z,74.18
2018-02-07T19:04:49.220Z,74.40
2018-02-07T19:07:19.243Z,74.50
2018-02-07T19:09:48.651Z,74.75
2018-02-07T19:12:18.632Z,74.92
2018-02-07T19:14:47.965Z,75.13
2018-02-07T19:17:18.030Z,75.26
2018-02-07T19:19:47.306Z,75.11
2018-02-07T19:22:16.633Z,74.74
2018-02-07T19:24:49.430Z,75.02
2018-02-07T19:27:22.277Z,75.23
2018-02-07T19:29:57.234Z,75.28
2018-02-07T19:32:26.608Z,75.15
2018-02-07T19:34:58.145Z,75.38
2018-02-07T19:37:31.130Z,75.43
2018-02-07T19:40:00.395Z,75.24
2018-02-07T19:42:29.606Z,75.07
2018-02-07T19:44:58.901Z,75.32
2018-02-07T19:47:28.346Z,75.29
2018-02-07T19:49:57.893Z,75.75
2018-02-07T19:52:28.664Z,75.64
2018-02-07T19:54:57.967Z,75.47
2018-02-07T19:57:27.272Z,75.42
2018-02-07T19:59:56.485Z,75.64
2018-02-07T20:02:25.774Z,75.92
2018-02-07T20:04:54.997Z,75.79
2018-02-07T20:07:24.262Z,75.71
2018-02-07T20:09:53.575Z,75.83
2018-02-07T20:12:22.836Z,75.96
2018-02-07T20:14:52.854Z,75.92
2018-02-07T20:17:22.169Z,75.88
2018-02-07T20:19:51.433Z,75.75
2018-02-07T20:22:20.689Z,75.55
2018-02-07T20:24:49.949Z,75.31
2018-02-07T20:27:19.966Z,75.54
2018-02-07T20:29:50.159Z,75.71
2018-02-07T20:32:19.391Z,75.79
2018-02-07T20:34:48.678Z,75.77
2018-02-07T20:37:18.675Z,75.58
2018-02-07T20:39:47.982Z,75.77
2018-02-07T20:42:17.213Z,75.81
2018-02-07T20:44:46.468Z,75.89
2018-02-07T20:47:16.037Z,75.93
2018-02-07T20:49:45.301Z,76.00
2018-02-07T20:52:14.566Z,76.08
2018-02-07T20:54:43.814Z,76.37
2018-02-07T20:57:13.036Z,76.14
2018-02-07T20:59:42.481Z,76.12
2018-02-07T21:02:11.698Z,76.29
2018-02-07T21:04:40.985Z,76.68
2018-02-07T21:07:11.166Z,76.75
2018-02-07T21:09:40.429Z,76.96
2018-02-07T21:12:09.669Z,76.93
2018-02-07T21:14:38.930Z,76.79
2018-02-07T21:17:08.186Z,76.86
2018-02-07T21:19:37.403Z,77.04
2018-02-07T21:22:07.411Z,77.09
2018-02-07T21:24:37.404Z,77.15
2018-02-07T21:27:06.645Z,77.29
2018-02-07T21:29:35.875Z,77.44
2018-02-07T21:32:05.133Z,77.42
2018-02-07T21:34:35.806Z,77.49
2018-02-07T21:37:05.058Z,77.71
2018-02-07T21:39:35.058Z,78.37
2018-02-07T21:42:05.791Z,78.40
2018-02-07T21:44:35.042Z,78.46
2018-02-07T21:47:04.290Z,78.76
2018-02-07T21:49:33.557Z,78.85
2018-02-07T21:52:02.840Z,78.91
2018-02-07T21:54:32.087Z,78.93
2018-02-07T21:57:01.339Z,78.94
2018-02-07T21:59:30.586Z,78.94
2018-02-07T22:01:59.811Z,78.97
2018-02-07T22:04:29.171Z,79.31
2018-02-07T22:06:58.419Z,79.40
2018-02-07T22:09:27.678Z,79.18
2018-02-07T22:11:57.761Z,79.03
2018-02-07T22:14:27.028Z,78.72
2018-02-07T22:16:56.267Z,78.48
2018-02-07T22:19:25.601Z,78.59
2018-02-07T22:21:55.668Z,78.58
2018-02-07T22:24:24.896Z,78.71
2018-02-07T22:26:54.114Z,79.27
2018-02-07T22:29:24.210Z,79.77
2018-02-07T22:31:53.551Z,79.77
2018-02-07T22:34:22.800Z,79.76
2018-02-07T22:36:53.559Z,79.62
2018-02-07T22:39:22.812Z,79.68
2018-02-07T22:41:52.187Z,79.77
2018-02-07T22:44:22.202Z,79.84
2018-02-07T22:46:52.222Z,80.03
2018-02-07T22:49:21.471Z,80.43
2018-02-07T22:51:50.764Z,80.83
2018-02-07T22:54:20.002Z,80.69
2018-02-07T22:56:49.983Z,80.90
2018-02-07T22:59:19.232Z,81.27
2018-02-07T23:01:48.514Z,81.47
2018-02-07T23:04:17.709Z,81.42
2018-02-07T23:06:47.747Z,80.84
2018-02-07T23:09:16.987Z,80.69
2018-02-07T23:11:46.250Z,80.77
2018-02-07T23:14:15.521Z,80.62
2018-02-07T23:16:45.547Z,80.62
2018-02-07T23:19:15.567Z,80.63
2018-02-07T23:21:44.816Z,80.51
2018-02-07T23:24:14.044Z,80.34
2018-02-07T23:26:44.210Z,80.41
2018-02-07T23:29:13.571Z,80.45
2018-02-07T23:31:43.622Z,80.96
2018-02-07T23:34:12.881Z,81.48
2018-02-07T23:36:42.902Z,81.72
2018-02-07T23:39:12.996Z,82.32
2018-02-07T23:41:42.219Z,82.55
2018-02-07T23:44:12.236Z,82.50
2018-02-07T23:46:42.214Z,82.71
2018-02-07T23:49:11.507Z,83.01
2018-02-07T23:51:40.808Z,83.15
2018-02-07T23:54:10.243Z,83.13
2018-02-07T23:56:40.231Z,83.11
2018-02-07T23:59:09.477Z,83.16
